sensor_id;sensor_type;location;lat;lon;timestamp;P1;durP1;ratioP1;P2;durP2;ratioP2
75311;SDS011;63906;55.686;37.532;2023-06-22T00:00:28;3.53;;;1.92;;
75311;SDS011;63906;55.686;37.532;2023-06-22T00:05:29;3.45;;;1.70;;
75311;SDS011;63906;55.686;37.532;2023-06-22T00:10:29;2.95;;;1.60;;
75311;SDS011;63906;55.686;37.532;2023-06-22T00:15:30;2.50;;;1.85;;
75311;SDS011;63906;55.686;37.532;2023-06-22T00:20:30;3.00;;;1.60;;
75311;SDS011;63906;55.686;37.532;2023-06-22T00:25:32;2.63;;;1.63;;
75311;SDS011;63906;55.686;37.532;2023-06-22T00:30:33;2.22;;;1.60;;
75311;SDS011;63906;55.686;37.532;2023-06-22T00:35:34;3.60;;;1.50;;
75311;SDS011;63906;55.686;37.532;2023-06-22T00:40:35;2.40;;;1.50;;
75311;SDS011;63906;55.686;37.532;2023-06-22T00:45:36;1.63;;;1.52;;
75311;SDS011;63906;55.686;37.532;2023-06-22T00:50:36;3.95;;;1.70;;
75311;SDS011;63906;55.686;37.532;2023-06-22T00:55:41;2.88;;;1.70;;
75311;SDS011;63906;55.686;37.532;2023-06-22T01:00:51;2.15;;;1.48;;
75311;SDS011;63906;55.686;37.532;2023-06-22T01:05:52;2.17;;;1.35;;
75311;SDS011;63906;55.686;37.532;2023-06-22T01:11:12;2.10;;;1.50;;
75311;SDS011;63906;55.686;37.532;2023-06-22T01:21:28;2.55;;;1.50;;
75311;SDS011;63906;55.686;37.532;2023-06-22T01:26:38;2.67;;;1.83;;
75311;SDS011;63906;55.686;37.532;2023-06-22T01:31:43;2.42;;;1.50;;
75311;SDS011;63906;55.686;37.532;2023-06-22T01:36:44;2.67;;;1.50;;
75311;SDS011;63906;55.686;37.532;2023-06-22T01:41:47;1.63;;;1.30;;
75311;SDS011;63906;55.686;37.532;2023-06-22T01:46:48;1.77;;;1.33;;
75311;SDS011;63906;55.686;37.532;2023-06-22T01:51:50;1.60;;;1.10;;
75311;SDS011;63906;55.686;37.532;2023-06-22T01:56:51;1.55;;;1.10;;
75311;SDS011;63906;55.686;37.532;2023-06-22T02:01:56;2.45;;;1.50;;
75311;SDS011;63906;55.686;37.532;2023-06-22T02:07:01;1.95;;;1.27;;
75311;SDS011;63906;55.686;37.532;2023-06-22T02:12:09;1.65;;;1.02;;
75311;SDS011;63906;55.686;37.532;2023-06-22T02:17:12;1.08;;;0.80;;
75311;SDS011;63906;55.686;37.532;2023-06-22T02:22:14;0.95;;;0.73;;
75311;SDS011;63906;55.686;37.532;2023-06-22T02:27:15;2.00;;;1.20;;
75311;SDS011;63906;55.686;37.532;2023-06-22T02:32:15;1.45;;;1.20;;
75311;SDS011;63906;55.686;37.532;2023-06-22T02:37:17;1.60;;;1.23;;
75311;SDS011;63906;55.686;37.532;2023-06-22T02:42:18;1.15;;;0.93;;
75311;SDS011;63906;55.686;37.532;2023-06-22T02:47:20;1.55;;;1.25;;
75311;SDS011;63906;55.686;37.532;2023-06-22T02:52:21;1.42;;;1.00;;
75311;SDS011;63906;55.686;37.532;2023-06-22T02:57:21;2.13;;;1.40;;
75311;SDS011;63906;55.686;37.532;2023-06-22T03:02:22;1.40;;;1.20;;
75311;SDS011;63906;55.686;37.532;2023-06-22T03:07:23;1.67;;;1.08;;
75311;SDS011;63906;55.686;37.532;2023-06-22T03:12:23;1.88;;;1.38;;
75311;SDS011;63906;55.686;37.532;2023-06-22T03:17:24;4.85;;;2.25;;
75311;SDS011;63906;55.686;37.532;2023-06-22T03:22:24;3.17;;;1.70;;
75311;SDS011;63906;55.686;37.532;2023-06-22T03:27:25;3.13;;;1.98;;
75311;SDS011;63906;55.686;37.532;2023-06-22T03:32:26;3.03;;;2.35;;
75311;SDS011;63906;55.686;37.532;2023-06-22T03:37:28;3.72;;;2.50;;
75311;SDS011;63906;55.686;37.532;2023-06-22T03:42:29;5.45;;;2.63;;
75311;SDS011;63906;55.686;37.532;2023-06-22T03:47:29;3.65;;;2.50;;
75311;SDS011;63906;55.686;37.532;2023-06-22T03:52:30;5.15;;;2.95;;
75311;SDS011;63906;55.686;37.532;2023-06-22T03:57:31;2.97;;;2.47;;
75311;SDS011;63906;55.686;37.532;2023-06-22T04:02:31;3.95;;;2.00;;
75311;SDS011;63906;55.686;37.532;2023-06-22T04:07:32;5.65;;;2.40;;
75311;SDS011;63906;55.686;37.532;2023-06-22T04:12:32;3.92;;;2.50;;
75311;SDS011;63906;55.686;37.532;2023-06-22T04:17:33;2.63;;;2.17;;
75311;SDS011;63906;55.686;37.532;2023-06-22T04:22:34;4.80;;;2.45;;
75311;SDS011;63906;55.686;37.532;2023-06-22T04:27:34;3.78;;;2.38;;
75311;SDS011;63906;55.686;37.532;2023-06-22T04:32:40;4.13;;;1.90;;
75311;SDS011;63906;55.686;37.532;2023-06-22T04:37:41;3.60;;;2.65;;
75311;SDS011;63906;55.686;37.532;2023-06-22T04:42:41;3.80;;;2.20;;
75311;SDS011;63906;55.686;37.532;2023-06-22T04:47:52;3.10;;;2.15;;
75311;SDS011;63906;55.686;37.532;2023-06-22T04:52:52;3.08;;;2.40;;
75311;SDS011;63906;55.686;37.532;2023-06-22T04:57:53;3.50;;;2.38;;
75311;SDS011;63906;55.686;37.532;2023-06-22T05:02:53;3.67;;;2.15;;
75311;SDS011;63906;55.686;37.532;2023-06-22T05:07:57;2.75;;;2.25;;
75311;SDS011;63906;55.686;37.532;2023-06-22T05:13:00;3.80;;;2.03;;
75311;SDS011;63906;55.686;37.532;2023-06-22T05:18:01;3.08;;;2.30;;
75311;SDS011;63906;55.686;37.532;2023-06-22T05:23:05;3.50;;;2.30;;
75311;SDS011;63906;55.686;37.532;2023-06-22T05:28:06;3.58;;;2.30;;
75311;SDS011;63906;55.686;37.532;2023-06-22T05:33:10;3.58;;;2.08;;
75311;SDS011;63906;55.686;37.532;2023-06-22T05:38:11;4.50;;;2.58;;
75311;SDS011;63906;55.686;37.532;2023-06-22T05:43:15;5.18;;;2.55;;
75311;SDS011;63906;55.686;37.532;2023-06-22T05:48:15;5.20;;;2.30;;
75311;SDS011;63906;55.686;37.532;2023-06-22T05:53:16;3.33;;;2.33;;
75311;SDS011;63906;55.686;37.532;2023-06-22T05:58:17;4.25;;;2.28;;
75311;SDS011;63906;55.686;37.532;2023-06-22T06:03:17;3.30;;;2.70;;
75311;SDS011;63906;55.686;37.532;2023-06-22T06:08:18;4.40;;;2.40;;
75311;SDS011;63906;55.686;37.532;2023-06-22T06:13:18;3.92;;;2.58;;
75311;SDS011;63906;55.686;37.532;2023-06-22T06:18:19;5.43;;;2.70;;
75311;SDS011;63906;55.686;37.532;2023-06-22T06:23:19;4.43;;;2.47;;
75311;SDS011;63906;55.686;37.532;2023-06-22T06:28:20;3.60;;;2.38;;
75311;SDS011;63906;55.686;37.532;2023-06-22T06:33:20;4.03;;;2.70;;
75311;SDS011;63906;55.686;37.532;2023-06-22T06:38:21;4.18;;;2.55;;
75311;SDS011;63906;55.686;37.532;2023-06-22T06:43:22;4.40;;;2.38;;
75311;SDS011;63906;55.686;37.532;2023-06-22T06:53:24;3.40;;;2.40;;
75311;SDS011;63906;55.686;37.532;2023-06-22T06:58:25;2.38;;;2.05;;
75311;SDS011;63906;55.686;37.532;2023-06-22T07:03:25;3.60;;;2.75;;
75311;SDS011;63906;55.686;37.532;2023-06-22T07:08:26;4.57;;;2.53;;
75311;SDS011;63906;55.686;37.532;2023-06-22T07:13:27;4.28;;;2.67;;
75311;SDS011;63906;55.686;37.532;2023-06-22T07:18:27;3.92;;;2.25;;
75311;SDS011;63906;55.686;37.532;2023-06-22T07:23:28;4.07;;;2.40;;
75311;SDS011;63906;55.686;37.532;2023-06-22T07:28:29;2.90;;;2.17;;
75311;SDS011;63906;55.686;37.532;2023-06-22T07:33:37;5.57;;;3.42;;
75311;SDS011;63906;55.686;37.532;2023-06-22T07:38:37;3.28;;;2.53;;
75311;SDS011;63906;55.686;37.532;2023-06-22T07:43:38;4.07;;;2.60;;
75311;SDS011;63906;55.686;37.532;2023-06-22T07:48:38;3.33;;;2.35;;
75311;SDS011;63906;55.686;37.532;2023-06-22T07:53:40;5.00;;;2.95;;
75311;SDS011;63906;55.686;37.532;2023-06-22T07:58:44;4.15;;;2.40;;
75311;SDS011;63906;55.686;37.532;2023-06-22T08:03:49;5.45;;;2.58;;
75311;SDS011;63906;55.686;37.532;2023-06-22T08:08:50;3.08;;;2.08;;
75311;SDS011;63906;55.686;37.532;2023-06-22T08:13:53;3.55;;;2.55;;
75311;SDS011;63906;55.686;37.532;2023-06-22T08:18:55;3.15;;;2.15;;
75311;SDS011;63906;55.686;37.532;2023-06-22T08:23:56;3.53;;;2.30;;
75311;SDS011;63906;55.686;37.532;2023-06-22T08:28:57;4.68;;;2.80;;
75311;SDS011;63906;55.686;37.532;2023-06-22T08:33:57;4.75;;;2.60;;
75311;SDS011;63906;55.686;37.532;2023-06-22T08:38:58;5.72;;;2.47;;
75311;SDS011;63906;55.686;37.532;2023-06-22T08:44:04;4.72;;;2.60;;
75311;SDS011;63906;55.686;37.532;2023-06-22T08:49:05;5.03;;;2.75;;
75311;SDS011;63906;55.686;37.532;2023-06-22T08:54:12;5.80;;;2.95;;
75311;SDS011;63906;55.686;37.532;2023-06-22T08:59:12;3.22;;;2.22;;
75311;SDS011;63906;55.686;37.532;2023-06-22T09:04:13;3.17;;;2.45;;
75311;SDS011;63906;55.686;37.532;2023-06-22T09:09:13;4.05;;;2.90;;
75311;SDS011;63906;55.686;37.532;2023-06-22T09:14:16;3.15;;;2.42;;
75311;SDS011;63906;55.686;37.532;2023-06-22T09:19:17;3.22;;;2.03;;
75311;SDS011;63906;55.686;37.532;2023-06-22T09:24:17;3.38;;;2.38;;
75311;SDS011;63906;55.686;37.532;2023-06-22T09:29:18;4.45;;;2.63;;
75311;SDS011;63906;55.686;37.532;2023-06-22T09:34:18;3.88;;;2.40;;
75311;SDS011;63906;55.686;37.532;2023-06-22T09:39:20;5.30;;;2.85;;
75311;SDS011;63906;55.686;37.532;2023-06-22T09:44:21;3.80;;;2.72;;
75311;SDS011;63906;55.686;37.532;2023-06-22T09:49:21;4.35;;;2.85;;
75311;SDS011;63906;55.686;37.532;2023-06-22T09:54:22;3.30;;;2.67;;
75311;SDS011;63906;55.686;37.532;2023-06-22T09:59:25;3.28;;;2.30;;
75311;SDS011;63906;55.686;37.532;2023-06-22T10:04:26;7.75;;;2.97;;
75311;SDS011;63906;55.686;37.532;2023-06-22T10:09:27;4.32;;;2.60;;
75311;SDS011;63906;55.686;37.532;2023-06-22T10:14:30;4.22;;;3.08;;
75311;SDS011;63906;55.686;37.532;2023-06-22T10:19:31;3.28;;;2.65;;
75311;SDS011;63906;55.686;37.532;2023-06-22T10:24:31;3.78;;;2.78;;
75311;SDS011;63906;55.686;37.532;2023-06-22T10:29:32;5.40;;;2.78;;
75311;SDS011;63906;55.686;37.532;2023-06-22T10:34:33;3.35;;;2.55;;
75311;SDS011;63906;55.686;37.532;2023-06-22T10:39:33;4.20;;;2.72;;
75311;SDS011;63906;55.686;37.532;2023-06-22T10:44:34;2.30;;;2.10;;
75311;SDS011;63906;55.686;37.532;2023-06-22T10:49:35;3.63;;;2.83;;
75311;SDS011;63906;55.686;37.532;2023-06-22T10:54:36;4.38;;;2.95;;
75311;SDS011;63906;55.686;37.532;2023-06-22T10:59:38;3.33;;;2.55;;
75311;SDS011;63906;55.686;37.532;2023-06-22T11:04:38;2.92;;;2.63;;
75311;SDS011;63906;55.686;37.532;2023-06-22T11:09:39;3.03;;;2.63;;
75311;SDS011;63906;55.686;37.532;2023-06-22T11:14:39;2.85;;;2.58;;
75311;SDS011;63906;55.686;37.532;2023-06-22T11:19:40;2.72;;;2.53;;
75311;SDS011;63906;55.686;37.532;2023-06-22T11:24:41;3.35;;;2.75;;
75311;SDS011;63906;55.686;37.532;2023-06-22T11:29:41;3.83;;;2.78;;
75311;SDS011;63906;55.686;37.532;2023-06-22T11:34:42;2.30;;;2.10;;
75311;SDS011;63906;55.686;37.532;2023-06-22T11:39:42;2.85;;;2.40;;
75311;SDS011;63906;55.686;37.532;2023-06-22T11:44:43;2.80;;;2.60;;
75311;SDS011;63906;55.686;37.532;2023-06-22T11:49:44;2.65;;;2.45;;
75311;SDS011;63906;55.686;37.532;2023-06-22T11:54:47;3.00;;;2.70;;
75311;SDS011;63906;55.686;37.532;2023-06-22T11:59:47;2.90;;;2.60;;
75311;SDS011;63906;55.686;37.532;2023-06-22T12:04:48;4.47;;;2.92;;
75311;SDS011;63906;55.686;37.532;2023-06-22T12:09:52;2.90;;;2.20;;
75311;SDS011;63906;55.686;37.532;2023-06-22T12:14:53;2.70;;;2.50;;
75311;SDS011;63906;55.686;37.532;2023-06-22T12:19:53;3.13;;;2.53;;
75311;SDS011;63906;55.686;37.532;2023-06-22T12:24:54;4.15;;;2.70;;
75311;SDS011;63906;55.686;37.532;2023-06-22T12:29:54;2.45;;;2.25;;
75311;SDS011;63906;55.686;37.532;2023-06-22T12:34:55;2.53;;;2.33;;
75311;SDS011;63906;55.686;37.532;2023-06-22T12:39:55;4.15;;;2.85;;
75311;SDS011;63906;55.686;37.532;2023-06-22T12:44:56;2.75;;;2.45;;
75311;SDS011;63906;55.686;37.532;2023-06-22T12:49:56;2.90;;;2.70;;
75311;SDS011;63906;55.686;37.532;2023-06-22T12:54:57;5.35;;;2.83;;
75311;SDS011;63906;55.686;37.532;2023-06-22T12:59:58;3.53;;;2.70;;
75311;SDS011;63906;55.686;37.532;2023-06-22T13:05:01;4.75;;;2.60;;
75311;SDS011;63906;55.686;37.532;2023-06-22T13:10:02;7.63;;;3.05;;
75311;SDS011;63906;55.686;37.532;2023-06-22T13:15:06;5.00;;;2.67;;
75311;SDS011;63906;55.686;37.532;2023-06-22T13:20:07;3.05;;;2.75;;
75311;SDS011;63906;55.686;37.532;2023-06-22T13:25:08;3.35;;;3.05;;
75311;SDS011;63906;55.686;37.532;2023-06-22T13:30:12;2.88;;;2.63;;
75311;SDS011;63906;55.686;37.532;2023-06-22T13:35:13;3.25;;;2.70;;
75311;SDS011;63906;55.686;37.532;2023-06-22T13:40:14;2.83;;;2.00;;
75311;SDS011;63906;55.686;37.532;2023-06-22T13:45:14;5.25;;;3.03;;
75311;SDS011;63906;55.686;37.532;2023-06-22T13:50:17;3.70;;;3.35;;
75311;SDS011;63906;55.686;37.532;2023-06-22T13:55:18;4.30;;;3.15;;
75311;SDS011;63906;55.686;37.532;2023-06-22T14:00:21;2.58;;;2.38;;
75311;SDS011;63906;55.686;37.532;2023-06-22T14:05:21;3.63;;;2.88;;
75311;SDS011;63906;55.686;37.532;2023-06-22T14:10:22;3.38;;;2.95;;
75311;SDS011;63906;55.686;37.532;2023-06-22T14:15:23;2.30;;;2.05;;
75311;SDS011;63906;55.686;37.532;2023-06-22T14:20:23;30.98;;;4.95;;
75311;SDS011;63906;55.686;37.532;2023-06-22T14:25:24;3.40;;;2.72;;
75311;SDS011;63906;55.686;37.532;2023-06-22T14:30:25;3.75;;;2.75;;
75311;SDS011;63906;55.686;37.532;2023-06-22T14:35:25;3.20;;;2.47;;
75311;SDS011;63906;55.686;37.532;2023-06-22T14:40:26;4.13;;;3.58;;
75311;SDS011;63906;55.686;37.532;2023-06-22T14:45:26;3.42;;;2.92;;
75311;SDS011;63906;55.686;37.532;2023-06-22T14:50:27;3.88;;;3.47;;
75311;SDS011;63906;55.686;37.532;2023-06-22T14:55:28;3.63;;;2.75;;
75311;SDS011;63906;55.686;37.532;2023-06-22T15:00:28;4.80;;;3.20;;
75311;SDS011;63906;55.686;37.532;2023-06-22T15:05:29;3.88;;;3.35;;
75311;SDS011;63906;55.686;37.532;2023-06-22T15:10:29;15.80;;;4.00;;
75311;SDS011;63906;55.686;37.532;2023-06-22T15:15:33;5.05;;;3.20;;
75311;SDS011;63906;55.686;37.532;2023-06-22T15:25:34;5.73;;;3.10;;
75311;SDS011;63906;55.686;37.532;2023-06-22T15:30:35;8.00;;;4.05;;
75311;SDS011;63906;55.686;37.532;2023-06-22T15:40:36;6.50;;;2.77;;
75311;SDS011;63906;55.686;37.532;2023-06-22T15:45:37;2.65;;;2.00;;
75311;SDS011;63906;55.686;37.532;2023-06-22T15:50:37;2.00;;;1.70;;
75311;SDS011;63906;55.686;37.532;2023-06-22T15:55:38;4.75;;;3.00;;
75311;SDS011;63906;55.686;37.532;2023-06-22T16:00:38;3.20;;;2.00;;
75311;SDS011;63906;55.686;37.532;2023-06-22T16:05:42;1.70;;;0.98;;
75311;SDS011;63906;55.686;37.532;2023-06-22T16:10:42;1.13;;;0.80;;
75311;SDS011;63906;55.686;37.532;2023-06-22T16:15:46;0.95;;;0.85;;
75311;SDS011;63906;55.686;37.532;2023-06-22T16:20:46;0.98;;;0.73;;
75311;SDS011;63906;55.686;37.532;2023-06-22T16:25:47;2.70;;;2.13;;
75311;SDS011;63906;55.686;37.532;2023-06-22T16:30:48;1.50;;;1.30;;
75311;SDS011;63906;55.686;37.532;2023-06-22T16:35:48;4.28;;;2.13;;
75311;SDS011;63906;55.686;37.532;2023-06-22T16:40:49;4.75;;;2.50;;
75311;SDS011;63906;55.686;37.532;2023-06-22T16:45:49;4.28;;;2.60;;
75311;SDS011;63906;55.686;37.532;2023-06-22T16:50:50;6.40;;;2.90;;
75311;SDS011;63906;55.686;37.532;2023-06-22T16:55:51;6.93;;;2.80;;
75311;SDS011;63906;55.686;37.532;2023-06-22T17:00:55;6.22;;;2.92;;
75311;SDS011;63906;55.686;37.532;2023-06-22T17:05:57;3.30;;;2.33;;
75311;SDS011;63906;55.686;37.532;2023-06-22T17:10:58;5.38;;;2.20;;
75311;SDS011;63906;55.686;37.532;2023-06-22T17:15:59;4.50;;;2.13;;
75311;SDS011;63906;55.686;37.532;2023-06-22T17:21:01;4.75;;;2.33;;
75311;SDS011;63906;55.686;37.532;2023-06-22T17:26:02;3.60;;;2.47;;
75311;SDS011;63906;55.686;37.532;2023-06-22T17:31:09;3.60;;;2.05;;
75311;SDS011;63906;55.686;37.532;2023-06-22T17:36:11;4.68;;;2.33;;
75311;SDS011;63906;55.686;37.532;2023-06-22T17:41:13;4.47;;;2.10;;
75311;SDS011;63906;55.686;37.532;2023-06-22T17:46:14;2.42;;;1.88;;
75311;SDS011;63906;55.686;37.532;2023-06-22T17:51:16;5.35;;;2.15;;
75311;SDS011;63906;55.686;37.532;2023-06-22T17:56:18;2.85;;;2.13;;
75311;SDS011;63906;55.686;37.532;2023-06-22T18:01:33;3.38;;;1.70;;
75311;SDS011;63906;55.686;37.532;2023-06-22T18:06:42;5.05;;;2.10;;
75311;SDS011;63906;55.686;37.532;2023-06-22T18:11:48;3.72;;;1.83;;
75311;SDS011;63906;55.686;37.532;2023-06-22T18:16:50;2.85;;;1.80;;
75311;SDS011;63906;55.686;37.532;2023-06-22T18:21:51;3.80;;;2.30;;
75311;SDS011;63906;55.686;37.532;2023-06-22T18:26:54;4.88;;;2.08;;
75311;SDS011;63906;55.686;37.532;2023-06-22T18:31:56;6.78;;;2.85;;
75311;SDS011;63906;55.686;37.532;2023-06-22T18:36:57;3.50;;;2.10;;
75311;SDS011;63906;55.686;37.532;2023-06-22T18:42:00;4.68;;;2.10;;
75311;SDS011;63906;55.686;37.532;2023-06-22T18:47:03;2.83;;;1.88;;
75311;SDS011;63906;55.686;37.532;2023-06-22T18:57:21;3.13;;;1.88;;
75311;SDS011;63906;55.686;37.532;2023-06-22T19:28:29;3.67;;;2.05;;
75311;SDS011;63906;55.686;37.532;2023-06-22T19:33:30;3.47;;;1.88;;
75311;SDS011;63906;55.686;37.532;2023-06-22T19:38:32;3.38;;;2.10;;
75311;SDS011;63906;55.686;37.532;2023-06-22T19:43:33;2.28;;;1.70;;
75311;SDS011;63906;55.686;37.532;2023-06-22T19:48:34;2.63;;;1.80;;
75311;SDS011;63906;55.686;37.532;2023-06-22T19:53:39;4.28;;;2.22;;
75311;SDS011;63906;55.686;37.532;2023-06-22T19:58:42;2.17;;;1.73;;
75311;SDS011;63906;55.686;37.532;2023-06-22T20:03:42;4.35;;;1.75;;
75311;SDS011;63906;55.686;37.532;2023-06-22T20:08:50;5.90;;;2.15;;
75311;SDS011;63906;55.686;37.532;2023-06-22T20:13:58;3.28;;;1.88;;
75311;SDS011;63906;55.686;37.532;2023-06-22T20:24:14;4.88;;;2.13;;
75311;SDS011;63906;55.686;37.532;2023-06-22T20:34:33;3.42;;;1.92;;
75311;SDS011;63906;55.686;37.532;2023-06-22T20:39:34;4.47;;;2.15;;
75311;SDS011;63906;55.686;37.532;2023-06-22T20:44:35;2.67;;;2.00;;
75311;SDS011;63906;55.686;37.532;2023-06-22T20:49:36;3.08;;;2.17;;
75311;SDS011;63906;55.686;37.532;2023-06-22T20:54:37;5.88;;;2.35;;
75311;SDS011;63906;55.686;37.532;2023-06-22T20:59:37;5.32;;;2.60;;
75311;SDS011;63906;55.686;37.532;2023-06-22T21:04:38;3.40;;;2.15;;
75311;SDS011;63906;55.686;37.532;2023-06-22T21:09:41;3.00;;;2.05;;
75311;SDS011;63906;55.686;37.532;2023-06-22T21:14:43;4.35;;;2.67;;
75311;SDS011;63906;55.686;37.532;2023-06-22T21:19:47;3.67;;;2.15;;
75311;SDS011;63906;55.686;37.532;2023-06-22T21:25:01;4.03;;;2.08;;
75311;SDS011;63906;55.686;37.532;2023-06-22T21:30:09;3.65;;;2.25;;
75311;SDS011;63906;55.686;37.532;2023-06-22T21:35:11;3.00;;;1.95;;
75311;SDS011;63906;55.686;37.532;2023-06-22T21:40:14;3.65;;;1.92;;
75311;SDS011;63906;55.686;37.532;2023-06-22T21:45:14;7.60;;;3.08;;
75311;SDS011;63906;55.686;37.532;2023-06-22T21:50:15;12.77;;;4.68;;
75311;SDS011;63906;55.686;37.532;2023-06-22T21:55:16;20.55;;;7.20;;
75311;SDS011;63906;55.686;37.532;2023-06-22T22:00:16;16.38;;;5.60;;
75311;SDS011;63906;55.686;37.532;2023-06-22T22:05:17;11.73;;;5.05;;
75311;SDS011;63906;55.686;37.532;2023-06-22T22:10:18;7.47;;;3.30;;
75311;SDS011;63906;55.686;37.532;2023-06-22T22:15:19;5.07;;;2.35;;
75311;SDS011;63906;55.686;37.532;2023-06-22T22:20:20;3.08;;;1.90;;
75311;SDS011;63906;55.686;37.532;2023-06-22T22:25:23;3.65;;;2.03;;
75311;SDS011;63906;55.686;37.532;2023-06-22T22:30:26;3.15;;;1.60;;
75311;SDS011;63906;55.686;37.532;2023-06-22T22:35:26;2.53;;;1.35;;
75311;SDS011;63906;55.686;37.532;2023-06-22T22:40:27;2.40;;;1.38;;
75311;SDS011;63906;55.686;37.532;2023-06-22T22:45:28;4.22;;;2.20;;
75311;SDS011;63906;55.686;37.532;2023-06-22T22:50:28;12.48;;;4.80;;
75311;SDS011;63906;55.686;37.532;2023-06-22T22:55:29;18.52;;;6.55;;
75311;SDS011;63906;55.686;37.532;2023-06-22T23:00:31;16.95;;;5.88;;
75311;SDS011;63906;55.686;37.532;2023-06-22T23:05:32;19.15;;;7.07;;
75311;SDS011;63906;55.686;37.532;2023-06-22T23:10:33;19.85;;;7.20;;
75311;SDS011;63906;55.686;37.532;2023-06-22T23:15:34;15.73;;;5.85;;
75311;SDS011;63906;55.686;37.532;2023-06-22T23:20:37;14.45;;;4.93;;
75311;SDS011;63906;55.686;37.532;2023-06-22T23:25:41;9.40;;;4.40;;
75311;SDS011;63906;55.686;37.532;2023-06-22T23:30:42;7.95;;;3.55;;
75311;SDS011;63906;55.686;37.532;2023-06-22T23:35:43;6.32;;;2.72;;
75311;SDS011;63906;55.686;37.532;2023-06-22T23:40:44;4.05;;;2.20;;
75311;SDS011;63906;55.686;37.532;2023-06-22T23:45:45;4.03;;;2.00;;
75311;SDS011;63906;55.686;37.532;2023-06-22T23:50:46;2.90;;;2.00;;
75311;SDS011;63906;55.686;37.532;2023-06-22T23:55:46;4.10;;;1.70;;
